createdAt,value
2022-10-11T00:00:22.009Z,99212.81
2022-10-11T00:02:48.904Z,99218.44
2022-10-11T00:05:15.810Z,99202.75
2022-10-11T00:07:43.387Z,99223.00
2022-10-11T00:10:10.968Z,99209.75
2022-10-11T00:12:38.000Z,99207.53
2022-10-11T00:15:06.771Z,99191.34
2022-10-11T00:17:34.797Z,99185.66
2022-10-11T00:20:01.629Z,99195.47
2022-10-11T00:22:28.637Z,99200.28
2022-10-11T00:24:55.470Z,99189.88
2022-10-11T00:27:22.403Z,99200.81
2022-10-11T00:29:49.171Z,99199.66
2022-10-11T00:32:16.417Z,99197.09
2022-10-11T00:34:48.766Z,99190.41
2022-10-11T00:37:15.629Z,99177.59
2022-10-11T00:39:51.552Z,99169.69
2022-10-11T00:42:18.798Z,99195.94
2022-10-11T00:44:50.826Z,99197.91
2022-10-11T00:47:24.488Z,99201.63
2022-10-11T00:49:59.365Z,99204.63
2022-10-11T00:52:33.404Z,99212.19
2022-10-11T00:55:07.399Z,99183.19
2022-10-11T00:57:39.897Z,99172.66
2022-10-11T01:00:10.781Z,99178.00
2022-10-11T01:02:38.375Z,99201.97
2022-10-11T01:05:28.046Z,99195.66
2022-10-11T01:07:55.843Z,99189.31
2022-10-11T01:10:23.032Z,99188.13
2022-10-11T01:13:11.266Z,99209.16
2022-10-11T01:16:03.087Z,99209.59
2022-10-11T01:19:05.872Z,99185.91
2022-10-11T01:21:55.801Z,99181.41
2022-10-11T01:24:34.550Z,99187.44
2022-10-11T01:27:20.019Z,99188.94
2022-10-11T01:30:05.015Z,99167.16
2022-10-11T01:32:47.146Z,99169.78
2022-10-11T01:35:41.026Z,99180.69
2022-10-11T01:38:13.964Z,99183.38
2022-10-11T01:41:12.975Z,99181.03
2022-10-11T01:43:42.628Z,99184.09
2022-10-11T01:46:11.041Z,99162.69
2022-10-11T01:49:07.424Z,99185.94
2022-10-11T01:51:47.482Z,99189.66
2022-10-11T01:54:49.793Z,99205.88
2022-10-11T01:57:50.111Z,99176.91
2022-10-11T02:00:44.706Z,99197.97
2022-10-11T02:03:23.721Z,99186.63
2022-10-11T02:06:11.638Z,99188.19
2022-10-11T02:08:50.177Z,99170.91
2022-10-11T02:11:26.597Z,99206.25
2022-10-11T02:14:04.687Z,99202.09
2022-10-11T02:17:07.223Z,99206.59
2022-10-11T02:19:44.706Z,99190.81
2022-10-11T02:22:23.263Z,99179.25
2022-10-11T02:24:55.432Z,99186.75
2022-10-11T02:27:27.652Z,99181.50
2022-10-11T02:29:59.888Z,99193.50
2022-10-11T02:32:29.770Z,99176.25
2022-10-11T02:34:59.038Z,99167.56
2022-10-11T02:37:41.061Z,99187.88
2022-10-11T02:40:15.692Z,99181.88
2022-10-11T02:42:53.761Z,99153.69
2022-10-11T02:45:34.683Z,99152.97
2022-10-11T02:48:02.688Z,99152.91
2022-10-11T02:50:44.375Z,99145.44
2022-10-11T02:53:11.448Z,99153.38
2022-10-11T02:55:38.231Z,99179.28
2022-10-11T02:58:06.508Z,99166.44
2022-10-11T03:00:33.413Z,99163.44
2022-10-11T03:03:00.352Z,99175.16
2022-10-11T03:05:27.150Z,99154.44
2022-10-11T03:07:57.107Z,99151.75
2022-10-11T03:10:23.879Z,99154.84
2022-10-11T03:12:50.696Z,99174.72
2022-10-11T03:15:17.581Z,99154.44
2022-10-11T03:17:44.490Z,99165.72
2022-10-11T03:20:11.417Z,99170.97
2022-10-11T03:22:38.271Z,99150.31
2022-10-11T03:25:05.382Z,99168.72
2022-10-11T03:27:53.235Z,99170.16
2022-10-11T03:30:20.201Z,99157.78
2022-10-11T03:32:47.046Z,99193.84
2022-10-11T03:35:13.934Z,99167.59
2022-10-11T03:37:40.722Z,99166.81
2022-10-11T03:40:08.306Z,99138.25
2022-10-11T03:42:35.958Z,99154.38
2022-10-11T03:45:03.383Z,99157.38
2022-10-11T03:47:31.126Z,99151.06
2022-10-11T03:49:58.090Z,99166.03
2022-10-11T03:52:24.896Z,99136.44
2022-10-11T03:54:52.104Z,99143.44
2022-10-11T03:57:19.481Z,99153.66
2022-10-11T03:59:46.401Z,99161.47
2022-10-11T04:02:13.352Z,99173.53
2022-10-11T04:04:40.364Z,99140.03
2022-10-11T04:07:07.775Z,99154.31
2022-10-11T04:09:34.707Z,99164.91
2022-10-11T04:12:01.652Z,99141.97
2022-10-11T04:14:28.541Z,99167.94
2022-10-11T04:16:58.404Z,99146.44
2022-10-11T04:19:27.411Z,99158.88
2022-10-11T04:21:54.223Z,99161.06
2022-10-11T04:24:21.052Z,99178.06
2022-10-11T04:26:48.528Z,99157.09
2022-10-11T04:29:15.491Z,99156.72
2022-10-11T04:31:42.382Z,99170.22
2022-10-11T04:34:09.328Z,99164.16
2022-10-11T04:36:36.258Z,99169.41
2022-10-11T04:39:05.672Z,99169.41
2022-10-11T04:41:32.965Z,99160.44
2022-10-11T04:44:01.049Z,99164.16
2022-10-11T04:46:28.189Z,99158.91
2022-10-11T04:48:55.162Z,99160.38
2022-10-11T04:51:22.508Z,99162.59
2022-10-11T04:53:49.743Z,99159.66
2022-10-11T04:56:17.367Z,99167.22
2022-10-11T04:58:45.775Z,99164.91
2022-10-11T05:01:12.592Z,99171.59
2022-10-11T05:03:43.198Z,99160.72
2022-10-11T05:06:10.491Z,99158.78
2022-10-11T05:08:39.047Z,99164.13
2022-10-11T05:11:10.436Z,99161.47
2022-10-11T05:13:37.395Z,99173.94
2022-10-11T05:16:10.426Z,99145.41
2022-10-11T05:18:57.086Z,99175.72
2022-10-11T05:21:26.848Z,99186.63
2022-10-11T05:23:55.471Z,99176.56
2022-10-11T05:26:23.454Z,99194.13
2022-10-11T05:28:50.403Z,99182.88
2022-10-11T05:31:17.263Z,99166.28
2022-10-11T05:33:44.208Z,99174.63
2022-10-11T05:36:11.772Z,99167.47
2022-10-11T05:38:39.054Z,99172.00
2022-10-11T05:41:06.695Z,99174.63
2022-10-11T05:43:33.520Z,99156.56
2022-10-11T05:46:00.446Z,99146.03
2022-10-11T05:48:27.486Z,99168.56
2022-10-11T05:51:06.115Z,99180.22
2022-10-11T05:53:33.611Z,99164.13
2022-10-11T05:56:20.455Z,99171.25
2022-10-11T05:58:47.450Z,99155.13
2022-10-11T06:01:26.244Z,99170.91
2022-10-11T06:03:53.836Z,99154.66
2022-10-11T06:06:20.846Z,99157.34
2022-10-11T06:08:51.165Z,99173.41
2022-10-11T06:11:25.358Z,99152.78
2022-10-11T06:13:57.380Z,99141.50
2022-10-11T06:16:24.946Z,99143.34
2022-10-11T06:18:58.263Z,99145.59
2022-10-11T06:21:25.171Z,99133.53
2022-10-11T06:23:56.831Z,99145.25
2022-10-11T06:26:27.397Z,99155.41
2022-10-11T06:28:54.323Z,99151.69
2022-10-11T06:31:21.650Z,99149.41
2022-10-11T06:33:48.635Z,99130.88
2022-10-11T06:36:16.422Z,99148.88
2022-10-11T06:38:45.423Z,99134.56
2022-10-11T06:41:21.328Z,99144.38
2022-10-11T06:43:48.406Z,99142.91
2022-10-11T06:46:16.293Z,99150.38
2022-10-11T06:48:44.593Z,99138.38
2022-10-11T06:51:17.682Z,99134.56
2022-10-11T06:53:52.180Z,99155.63
2022-10-11T06:56:19.701Z,99129.97
2022-10-11T06:58:46.687Z,99145.75
2022-10-11T07:01:15.501Z,99116.94
2022-10-11T07:03:42.629Z,99129.25
2022-10-11T07:06:11.830Z,99121.53
2022-10-11T07:08:39.450Z,99148.56
2022-10-11T07:11:11.821Z,99115.53
2022-10-11T07:13:39.816Z,99127.06
2022-10-11T07:16:10.199Z,99132.78
2022-10-11T07:18:37.593Z,99122.34
2022-10-11T07:21:11.433Z,99147.00
2022-10-11T07:23:38.427Z,99138.31
2022-10-11T07:26:06.674Z,99136.78
2022-10-11T07:28:35.282Z,99078.09
2022-10-11T07:31:28.259Z,99111.81
2022-10-11T07:33:55.159Z,99118.56
2022-10-11T07:36:22.312Z,99113.53
2022-10-11T07:38:49.615Z,99132.63
2022-10-11T07:41:16.993Z,99119.22
2022-10-11T07:43:44.334Z,99132.34
2022-10-11T07:46:11.449Z,99106.34
2022-10-11T07:48:38.850Z,99122.16
2022-10-11T07:51:07.335Z,99108.63
2022-10-11T07:53:45.680Z,99120.81
2022-10-11T07:56:15.147Z,99129.28
2022-10-11T07:58:43.018Z,99133.97
2022-10-11T08:01:11.563Z,99094.63
2022-10-11T08:03:38.854Z,99108.53
2022-10-11T08:06:08.503Z,99126.00
2022-10-11T08:08:50.201Z,99130.38
2022-10-11T08:11:36.228Z,99125.53
2022-10-11T08:14:05.727Z,99108.28
2022-10-11T08:16:32.554Z,99109.84
2022-10-11T08:18:59.382Z,99107.34
2022-10-11T08:21:26.577Z,99101.06
2022-10-11T08:23:53.428Z,99124.22
2022-10-11T08:26:21.222Z,99103.72
2022-10-11T08:28:48.413Z,99106.81
2022-10-11T08:31:16.361Z,99093.28
2022-10-11T08:33:44.155Z,99086.69
2022-10-11T08:36:12.145Z,99103.66
2022-10-11T08:38:39.775Z,99076.19
2022-10-11T08:41:23.999Z,99113.41
2022-10-11T08:44:06.077Z,99086.19
2022-10-11T08:46:34.518Z,99057.41
2022-10-11T08:49:02.530Z,99111.88
2022-10-11T08:51:48.374Z,99090.72
2022-10-11T08:54:39.523Z,99086.13
2022-10-11T08:57:09.913Z,99089.34
2022-10-11T08:59:44.013Z,99075.56
2022-10-11T09:03:06.468Z,99091.44
2022-10-11T09:06:00.867Z,99078.06
2022-10-11T09:08:46.353Z,99105.34
2022-10-11T09:11:35.153Z,99104.59
2022-10-11T09:14:22.834Z,99058.09
2022-10-11T09:16:57.017Z,99077.34
2022-10-11T09:19:24.031Z,99088.84
2022-10-11T09:22:30.895Z,99081.53
2022-10-11T09:25:00.437Z,99074.25
2022-10-11T09:28:01.219Z,99070.09
2022-10-11T09:31:09.230Z,99060.28
2022-10-11T09:33:49.126Z,99052.38
2022-10-11T09:36:22.819Z,99065.41
2022-10-11T09:39:15.152Z,99074.47
2022-10-11T09:42:00.714Z,99078.81
2022-10-11T09:44:32.698Z,99062.81
2022-10-11T09:46:59.668Z,99052.00
2022-10-11T09:49:37.352Z,99057.16
2022-10-11T09:52:11.226Z,99074.34
2022-10-11T09:54:41.327Z,99073.06
2022-10-11T09:57:20.432Z,99032.53
2022-10-11T09:59:59.239Z,99043.75
2022-10-11T10:02:27.271Z,99030.16
2022-10-11T10:05:20.370Z,99058.78
2022-10-11T10:08:26.401Z,99058.00
2022-10-11T10:10:59.395Z,99029.38
2022-10-11T10:13:46.131Z,99038.03
2022-10-11T10:16:28.158Z,99061.97
2022-10-11T10:19:05.100Z,99032.28
2022-10-11T10:21:36.471Z,99072.94
2022-10-11T10:24:17.269Z,99036.78
2022-10-11T10:27:23.860Z,99034.38
2022-10-11T10:30:15.828Z,99052.34
2022-10-11T10:33:00.667Z,99044.00
2022-10-11T10:35:41.363Z,99059.31
2022-10-11T10:38:26.234Z,99047.97
2022-10-11T10:41:11.768Z,99045.31
2022-10-11T10:43:50.931Z,99044.94
2022-10-11T10:46:37.717Z,99038.66
2022-10-11T10:49:54.035Z,99037.13
2022-10-11T10:52:42.004Z,99032.00
2022-10-11T10:55:30.863Z,99022.66
2022-10-11T10:58:21.945Z,99035.38
2022-10-11T11:01:05.534Z,99024.09
2022-10-11T11:03:53.853Z,99042.44
2022-10-11T11:06:36.445Z,99021.44
2022-10-11T11:09:14.072Z,99024.94
2022-10-11T11:11:49.603Z,99041.25
2022-10-11T11:14:19.765Z,99051.47
2022-10-11T11:17:26.278Z,99033.22
2022-10-11T11:20:02.209Z,99066.16
2022-10-11T11:23:03.319Z,99018.22
2022-10-11T11:25:46.784Z,99042.41
2022-10-11T11:28:26.623Z,99028.84
2022-10-11T11:31:13.518Z,99026.44
2022-10-11T11:34:05.340Z,99038.44
2022-10-11T11:36:54.267Z,99039.34
2022-10-11T11:39:24.609Z,99036.84
2022-10-11T11:42:23.612Z,99016.97
2022-10-11T11:44:51.799Z,99038.81
2022-10-11T11:47:45.763Z,99042.41
2022-10-11T11:50:12.651Z,99030.44
2022-10-11T11:52:44.353Z,99038.59
2022-10-11T11:55:43.730Z,99035.03
2022-10-11T11:58:35.136Z,99057.34
2022-10-11T12:01:39.396Z,99037.03
2022-10-11T12:04:28.252Z,99015.31
2022-10-11T12:07:19.514Z,99022.75
2022-10-11T12:10:24.585Z,99051.25
2022-10-11T12:13:07.409Z,99041.25
2022-10-11T12:15:35.834Z,99058.97
2022-10-11T12:18:13.528Z,99047.88
2022-10-11T12:20:42.042Z,99048.84
2022-10-11T12:23:30.654Z,99042.81
2022-10-11T12:26:29.716Z,99035.34
2022-10-11T12:29:18.392Z,99048.44
2022-10-11T12:31:51.093Z,99037.66
2022-10-11T12:34:36.841Z,99036.84
2022-10-11T12:37:18.954Z,99045.44
2022-10-11T12:39:54.061Z,99036.63
2022-10-11T12:42:36.659Z,99036.03
2022-10-11T12:45:13.436Z,99042.97
2022-10-11T12:48:20.262Z,99056.78
2022-10-11T12:51:15.236Z,99031.34
2022-10-11T12:54:24.968Z,99043.16
2022-10-11T12:57:11.672Z,99035.31
2022-10-11T12:59:45.523Z,99042.06
2022-10-11T13:02:40.264Z,99024.22
2022-10-11T13:05:23.766Z,99037.09
2022-10-11T13:07:53.147Z,99030.91
2022-10-11T13:10:26.481Z,99042.44
2022-10-11T13:12:55.019Z,99014.16
2022-10-11T13:15:23.435Z,99049.91
2022-10-11T13:17:50.557Z,99051.56
2022-10-11T13:20:17.336Z,99032.53
2022-10-11T13:22:47.732Z,99019.47
2022-10-11T13:25:20.417Z,99057.63
2022-10-11T13:27:49.543Z,99040.59
2022-10-11T13:30:20.279Z,99062.31
2022-10-11T13:32:48.502Z,99063.09
2022-10-11T13:35:54.107Z,99060.41
2022-10-11T13:38:31.474Z,99041.06
2022-10-11T13:41:01.496Z,99045.28
2022-10-11T13:43:30.911Z,99049.41
2022-10-11T13:46:01.326Z,99025.50
2022-10-11T13:48:31.891Z,99039.13
2022-10-11T13:51:13.858Z,99032.09
2022-10-11T13:54:01.335Z,99036.50
2022-10-11T13:56:32.280Z,99047.16
2022-10-11T13:59:02.703Z,99038.38
2022-10-11T14:01:36.200Z,99037.03
2022-10-11T14:04:07.266Z,99018.78
2022-10-11T14:06:43.346Z,99043.97
2022-10-11T14:09:26.331Z,99036.25
2022-10-11T14:11:56.334Z,99029.06
2022-10-11T14:14:33.619Z,99053.47
2022-10-11T14:18:02.288Z,99045.66
2022-10-11T14:20:40.625Z,99056.00
2022-10-11T14:23:10.405Z,99055.00
2022-10-11T14:25:38.488Z,99043.69
2022-10-11T14:28:11.288Z,99051.69
2022-10-11T14:30:41.351Z,99042.31
2022-10-11T14:33:08.221Z,99013.50
2022-10-11T14:35:36.955Z,99042.63
2022-10-11T14:38:03.846Z,99054.94
2022-10-11T14:40:31.505Z,99043.06
2022-10-11T14:43:00.897Z,99073.34
2022-10-11T14:45:27.808Z,99051.16
2022-10-11T14:47:55.908Z,99066.22
2022-10-11T14:50:37.521Z,99062.44
2022-10-11T14:53:05.949Z,99059.16
2022-10-11T14:55:52.812Z,99055.09
2022-10-11T14:58:19.762Z,99056.97
2022-10-11T15:00:46.602Z,99082.59
2022-10-11T15:03:13.518Z,99034.84
2022-10-11T15:05:40.380Z,99069.22
2022-10-11T15:08:07.836Z,99070.09
2022-10-11T15:10:45.253Z,99070.19
2022-10-11T15:13:12.282Z,99068.22
2022-10-11T15:15:39.584Z,99056.63
2022-10-11T15:18:08.623Z,99071.28
2022-10-11T15:20:44.762Z,99079.81
2022-10-11T15:23:14.942Z,99080.34
2022-10-11T15:25:41.886Z,99085.47
2022-10-11T15:28:20.920Z,99085.91
2022-10-11T15:30:48.268Z,99089.13
2022-10-11T15:33:15.071Z,99075.72
2022-10-11T15:35:41.996Z,99082.16
2022-10-11T15:38:24.686Z,99082.53
2022-10-11T15:40:53.270Z,99079.91
2022-10-11T15:43:24.461Z,99084.06
2022-10-11T15:45:56.925Z,99081.09
2022-10-11T15:48:26.756Z,99063.34
2022-10-11T15:50:56.272Z,99067.63
2022-10-11T15:53:26.088Z,99077.38
2022-10-11T15:56:29.287Z,99075.13
2022-10-11T15:58:58.700Z,99077.53
2022-10-11T16:01:27.921Z,99079.72
2022-10-11T16:03:54.881Z,99095.47
2022-10-11T16:06:22.238Z,99084.97
2022-10-11T16:08:49.269Z,99084.94
2022-10-11T16:11:16.647Z,99077.72
2022-10-11T16:13:47.289Z,99080.72
2022-10-11T16:16:14.133Z,99071.28
2022-10-11T16:18:40.936Z,99103.81
2022-10-11T16:21:11.042Z,99061.72
2022-10-11T16:23:38.290Z,99048.94
2022-10-11T16:26:08.346Z,99071.38
2022-10-11T16:28:35.945Z,99077.59
2022-10-11T16:31:10.766Z,99073.06
2022-10-11T16:33:38.149Z,99085.00
2022-10-11T16:36:08.692Z,99159.41
2022-10-11T16:38:36.282Z,99080.47
2022-10-11T16:41:05.921Z,99109.00
2022-10-11T16:43:44.279Z,99074.78
2022-10-11T16:46:11.158Z,99083.53
2022-10-11T16:48:38.478Z,99076.44
2022-10-11T16:51:07.579Z,99099.31
2022-10-11T16:53:35.892Z,99086.94
2022-10-11T16:56:10.389Z,99075.59
2022-10-11T16:58:37.417Z,99091.91
2022-10-11T17:01:09.331Z,99084.72
2022-10-11T17:03:36.741Z,99078.69
2022-10-11T17:06:04.902Z,99075.31
2022-10-11T17:08:32.107Z,99084.31
2022-10-11T17:10:59.217Z,99074.56
2022-10-11T17:13:26.452Z,99080.56
2022-10-11T17:15:53.300Z,99085.59
2022-10-11T17:18:25.219Z,99095.81
2022-10-11T17:21:07.701Z,99085.78
2022-10-11T17:23:38.349Z,99082.00
2022-10-11T17:26:11.228Z,99073.66
2022-10-11T17:28:39.387Z,99071.59
2022-10-11T17:31:06.795Z,99075.03
2022-10-11T17:33:36.649Z,99062.06
2022-10-11T17:36:32.705Z,99082.91
2022-10-11T17:39:01.368Z,99078.00
2022-10-11T17:41:32.107Z,99083.69
2022-10-11T17:44:00.314Z,99080.66
2022-10-11T17:46:27.336Z,99046.09
2022-10-11T17:49:13.093Z,99070.94
2022-10-11T17:51:41.053Z,99060.81
2022-10-11T17:54:08.421Z,99064.56
2022-10-11T17:56:40.082Z,99058.19
2022-10-11T17:59:14.865Z,99052.84
2022-10-11T18:01:41.911Z,99058.19
2022-10-11T18:04:10.586Z,99066.81
2022-10-11T18:09:27.478Z,99061.88
2022-10-11T18:11:54.389Z,99076.78
2022-10-11T18:14:21.312Z,99094.91
2022-10-11T18:16:48.565Z,99062.16
2022-10-11T18:19:15.584Z,99063.16
2022-10-11T18:21:42.600Z,99067.78
2022-10-11T18:24:15.185Z,99059.56
2022-10-11T18:26:43.047Z,99088.88
2022-10-11T18:29:09.961Z,99072.44
2022-10-11T18:31:36.953Z,99075.72
2022-10-11T18:34:05.588Z,99077.09
2022-10-11T18:36:32.989Z,99050.56
2022-10-11T18:39:11.762Z,99088.38
2022-10-11T18:41:39.705Z,99059.94
2022-10-11T18:44:08.834Z,99058.78
2022-10-11T18:46:36.069Z,99052.13
2022-10-11T18:49:03.486Z,99064.06
2022-10-11T18:51:38.159Z,99050.44
2022-10-11T18:54:06.854Z,99064.75
2022-10-11T18:56:35.740Z,99060.78
2022-10-11T18:59:03.908Z,99045.59
2022-10-11T19:01:36.360Z,99047.06
2022-10-11T19:04:04.981Z,99058.66
2022-10-11T19:06:41.440Z,99072.84
2022-10-11T19:09:28.460Z,99083.06
2022-10-11T19:12:00.142Z,99073.94
2022-10-11T19:14:29.561Z,99054.09
2022-10-11T19:16:57.295Z,99041.72
2022-10-11T19:20:01.261Z,99029.28
2022-10-11T19:22:28.279Z,99065.00
2022-10-11T19:24:55.070Z,99062.69
2022-10-11T19:27:22.090Z,99075.09
2022-10-11T19:29:48.989Z,99048.88
2022-10-11T19:32:15.874Z,99053.09
2022-10-11T19:34:42.746Z,99068.09
2022-10-11T19:37:09.551Z,99057.28
2022-10-11T19:39:36.458Z,99054.00
2022-10-11T19:42:03.497Z,99065.69
2022-10-11T19:44:31.756Z,99046.13
2022-10-11T19:47:04.920Z,99053.91
2022-10-11T19:49:32.167Z,99066.69
2022-10-11T19:51:59.127Z,99030.22
2022-10-11T19:54:25.997Z,99043.06
2022-10-11T19:56:52.883Z,99068.72
2022-10-11T19:59:19.977Z,99049.47
2022-10-11T20:01:53.255Z,99052.47
2022-10-11T20:07:08.189Z,99050.72
2022-10-11T20:09:35.224Z,99060.09
2022-10-11T20:12:02.157Z,99036.53
2022-10-11T20:14:29.022Z,99035.38
2022-10-11T20:16:55.913Z,99068.78
2022-10-11T20:19:27.712Z,99058.28
2022-10-11T20:21:57.252Z,99043.25
2022-10-11T20:24:24.058Z,99056.72
2022-10-11T20:26:50.918Z,99053.41
2022-10-11T20:29:17.796Z,99059.47
2022-10-11T20:31:44.877Z,99064.66
2022-10-11T20:34:11.787Z,99056.72
2022-10-11T20:36:38.702Z,99069.47
2022-10-11T20:39:05.685Z,99043.22
2022-10-11T20:41:37.522Z,99052.22
2022-10-11T20:44:05.177Z,99049.19
2022-10-11T20:46:34.243Z,99051.81
2022-10-11T20:49:04.161Z,99054.91
2022-10-11T20:51:32.785Z,99053.69
2022-10-11T20:54:00.674Z,99056.31
2022-10-11T20:56:28.049Z,99046.88
2022-10-11T20:58:56.444Z,99026.69
2022-10-11T21:01:29.750Z,99051.50
2022-10-11T21:03:58.822Z,99063.53
2022-10-11T21:06:26.292Z,99069.47
2022-10-11T21:08:57.967Z,99057.78
2022-10-11T21:11:30.640Z,99055.22
2022-10-11T21:13:59.196Z,99044.97
2022-10-11T21:16:27.059Z,99059.38
2022-10-11T21:18:56.077Z,99054.50
2022-10-11T21:21:32.764Z,99061.19
2022-10-11T21:24:01.725Z,99037.16
2022-10-11T21:26:30.225Z,99061.06
2022-10-11T21:28:57.643Z,99060.03
2022-10-11T21:31:24.547Z,99052.53
2022-10-11T21:33:51.791Z,99057.34
2022-10-11T21:36:23.379Z,99036.75
2022-10-11T21:38:51.589Z,99058.19
2022-10-11T21:41:26.313Z,99055.91
2022-10-11T21:43:53.625Z,99058.88
2022-10-11T21:46:32.519Z,99042.75
2022-10-11T21:49:12.331Z,99028.91
2022-10-11T21:51:39.125Z,99039.00
2022-10-11T21:54:06.041Z,99066.09
2022-10-11T21:56:32.940Z,99051.38
2022-10-11T21:58:59.783Z,99067.91
2022-10-11T22:01:26.610Z,99042.44
2022-10-11T22:04:04.407Z,99057.00
2022-10-11T22:06:31.319Z,99055.94
2022-10-11T22:08:58.107Z,99047.66
2022-10-11T22:11:25.297Z,99083.72
2022-10-11T22:13:52.100Z,99073.91
2022-10-11T22:16:19.370Z,99062.53
2022-10-11T22:18:46.479Z,99065.56
2022-10-11T22:21:16.377Z,99092.66
2022-10-11T22:23:46.234Z,99053.84
2022-10-11T22:26:16.574Z,99055.78
2022-10-11T22:28:43.994Z,99055.53
2022-10-11T22:31:10.832Z,99059.19
2022-10-11T22:33:38.104Z,99070.16
2022-10-11T22:36:07.518Z,99064.47
2022-10-11T22:38:45.339Z,99057.34
2022-10-11T22:41:12.457Z,99065.56
2022-10-11T22:43:39.316Z,99071.94
2022-10-11T22:46:06.814Z,99074.56
2022-10-11T22:48:34.083Z,99074.63
2022-10-11T22:51:01.625Z,99062.13
2022-10-11T22:53:29.124Z,99067.06
2022-10-11T22:55:56.406Z,99064.69
2022-10-11T22:58:23.287Z,99069.53
2022-10-11T23:00:50.240Z,99077.91
2022-10-11T23:03:18.810Z,99074.44
2022-10-11T23:05:55.061Z,99076.22
2022-10-11T23:08:21.991Z,99077.84
2022-10-11T23:10:54.404Z,99077.56
2022-10-11T23:13:21.603Z,99084.94
2022-10-11T23:15:48.503Z,99060.22
2022-10-11T23:18:16.974Z,99065.06
2022-10-11T23:20:44.365Z,99057.19
2022-10-11T23:23:11.297Z,99084.16
2022-10-11T23:25:39.168Z,99068.34
2022-10-11T23:28:06.286Z,99049.19
2022-10-11T23:30:33.131Z,99059.31
2022-10-11T23:33:00.071Z,99072.97
2022-10-11T23:35:26.951Z,99077.78
2022-10-11T23:37:54.119Z,99063.09
2022-10-11T23:40:21.131Z,99073.53
2022-10-11T23:42:48.017Z,99071.72
2022-10-11T23:45:14.914Z,99076.13
2022-10-11T23:47:41.811Z,99072.88
2022-10-11T23:50:09.106Z,99070.63
2022-10-11T23:52:36.211Z,99013.81
2022-10-11T23:55:03.329Z,99069.38
2022-10-11T23:57:30.348Z,99075.06
2022-10-11T23:59:57.136Z,99068.16
